Time;durP1;ratioP1;P1;durP2;ratioP2;P2;SDS_P1;SDS_P2;PMS_P1;PMS_P2;Temp;Humidity;BMP_temperature;BMP_pressure;BME280_temperature;BME280_humidity;BME280_pressure;Samples;Min_cycle;Max_cycle;Signal;HPM_P1;HPM_P2
2022/04/29 00:01:03;;;;;;;;;;;16.60;85.20;;;;;;4592282;19;19918;-25
2022/04/29 00:02:34;;;;;;;;;;;16.60;85.20;;;;;;4592583;19;19915;-22
2022/04/29 00:04:05;;;;;;;;;;;16.50;85.10;;;;;;4592644;19;19917;-21
2022/04/29 00:05:37;;;;;;;;;;;16.50;85.10;;;;;;4593186;19;19966;-21
2022/04/29 00:07:09;;;;;;;;;;;16.60;85.10;;;;;;4592172;19;20267;-21
2022/04/29 00:08:39;;;;;;;;;;;16.60;85.10;;;;;;4592244;19;19938;-25
2022/04/29 00:10:13;;;;;;;;;;;16.50;85.00;;;;;;4592261;19;19915;-23
2022/04/29 00:11:46;;;;;;;;;;;16.50;85.00;;;;;;4593314;19;19919;-23
2022/04/29 00:13:17;;;;;;;;;;;16.60;84.90;;;;;;4592264;19;19966;-23
2022/04/29 00:14:48;;;;;;;;;;;16.60;84.80;;;;;;4592524;19;19925;-23
2022/04/29 00:16:19;;;;;;;;;;;16.50;84.60;;;;;;4590934;19;19933;-22
2022/04/29 00:17:50;;;;;;;;;;;16.50;84.50;;;;;;4591823;19;19974;-23
2022/04/29 00:19:21;;;;;;;;;;;16.60;84.50;;;;;;4592123;19;20321;-23
2022/04/29 00:20:51;;;;;;;;;;;16.60;84.50;;;;;;4590866;19;20237;-22
2022/04/29 00:22:22;;;;;;;;;;;16.60;84.50;;;;;;4589630;19;19947;-22
2022/04/29 00:23:53;;;;;;;;;;;16.60;84.50;;;;;;4590960;19;19978;-23
2022/04/29 00:25:24;;;;;;;;;;;16.60;84.50;;;;;;4591450;19;20325;-22
2022/04/29 00:26:55;;;;;;;;;;;16.60;84.50;;;;;;4591092;19;19970;-24
2022/04/29 00:28:26;;;;;;;;;;;16.50;84.40;;;;;;4591640;19;19932;-22
2022/04/29 00:29:57;;;;;;;;;;;16.60;84.40;;;;;;4591686;19;19984;-25
2022/04/29 00:31:28;;;;;;;;;;;16.60;84.30;;;;;;4591336;19;19918;-23
2022/04/29 00:32:59;;;;;;;;;;;16.60;84.20;;;;;;4592211;19;19970;-22
2022/04/29 00:34:30;;;;;;;;;;;16.60;84.20;;;;;;4591465;19;20308;-22
2022/04/29 00:36:01;;;;;;;;;;;16.60;84.20;;;;;;4592019;19;19943;-25
2022/04/29 00:37:32;;;;;;;;;;;16.60;84.20;;;;;;4590635;19;19941;-22
2022/04/29 00:39:03;;;;;;;;;;;16.60;84.20;;;;;;4592439;19;19911;-23
2022/04/29 00:40:34;;;;;;;;;;;16.50;84.20;;;;;;4591604;19;19922;-22
2022/04/29 00:42:11;;;;;;;;;;;16.60;84.30;;;;;;4591639;19;19945;-23
2022/04/29 00:43:42;;;;;;;;;;;16.60;84.30;;;;;;4592037;19;19942;-22
2022/04/29 00:45:13;;;;;;;;;;;16.50;84.20;;;;;;4592140;19;19974;-23
2022/04/29 00:46:44;;;;;;;;;;;16.60;84.20;;;;;;4591304;19;20245;-23
2022/04/29 00:48:16;;;;;;;;;;;16.60;84.20;;;;;;4590405;19;20256;-22
2022/04/29 00:49:47;;;;;;;;;;;16.60;84.10;;;;;;4591482;19;19915;-22
2022/04/29 00:51:17;;;;;;;;;;;16.50;84.10;;;;;;4591700;19;19919;-24
2022/04/29 00:52:50;;;;;;;;;;;16.60;84.20;;;;;;4591043;19;19914;-24
2022/04/29 00:54:23;;;;;;;;;;;16.50;84.70;;;;;;4591840;19;19919;-22
2022/04/29 00:55:55;;;;;;;;;;;16.50;84.20;;;;;;4590528;19;20403;-22
2022/04/29 00:57:28;;;;;;;;;;;16.50;84.20;;;;;;4592274;19;19938;-25
2022/04/29 00:59:22;;;;;;;;;;;16.50;84.10;;;;;;4591293;19;19925;-22
2022/04/29 01:00:56;;;;;;;;;;;16.50;84.00;;;;;;4588822;19;19933;-23
2022/04/29 01:02:27;;;;;;;;;;;16.50;84.00;;;;;;4589058;19;19918;-22
2022/04/29 01:03:58;;;;;;;;;;;16.50;84.00;;;;;;4589249;19;19949;-21
2022/04/29 01:05:28;;;;;;;;;;;16.50;83.80;;;;;;4588702;19;19911;-25
2022/04/29 01:07:00;;;;;;;;;;;16.50;83.80;;;;;;4589108;19;19952;-22
2022/04/29 01:08:31;;;;;;;;;;;16.50;83.90;;;;;;4589318;19;19979;-25
2022/04/29 01:10:02;;;;;;;;;;;16.50;83.70;;;;;;4589060;19;19919;-25
2022/04/29 01:11:33;;;;;;;;;;;16.50;83.60;;;;;;4588799;19;19990;-22
2022/04/29 01:13:04;;;;;;;;;;;16.50;83.60;;;;;;4588616;19;20398;-23
2022/04/29 01:14:35;;;;;;;;;;;16.50;83.60;;;;;;4589544;19;19915;-22
2022/04/29 01:16:06;;;;;;;;;;;16.50;83.60;;;;;;4588196;19;19923;-23
2022/04/29 01:17:37;;;;;;;;;;;16.50;83.60;;;;;;4587708;19;19916;-23
2022/04/29 01:19:08;;;;;;;;;;;16.50;83.60;;;;;;4588400;19;19918;-22
2022/04/29 01:20:39;;;;;;;;;;;16.50;83.50;;;;;;4588990;19;20396;-24
2022/04/29 01:22:11;;;;;;;;;;;16.50;83.40;;;;;;4588531;19;19932;-23
2022/04/29 01:23:43;;;;;;;;;;;16.50;83.40;;;;;;4588772;19;19911;-23
2022/04/29 01:25:14;;;;;;;;;;;16.50;83.40;;;;;;4588466;19;19936;-23
2022/04/29 01:26:45;;;;;;;;;;;16.50;83.30;;;;;;4589333;19;19918;-24
2022/04/29 01:28:17;;;;;;;;;;;16.50;83.30;;;;;;4588233;19;19910;-24
2022/04/29 01:29:49;;;;;;;;;;;16.50;83.20;;;;;;4588768;19;19921;-22
2022/04/29 01:31:21;;;;;;;;;;;16.50;83.20;;;;;;4588800;19;19929;-22
2022/04/29 01:32:53;;;;;;;;;;;16.50;83.10;;;;;;4591177;19;19937;-22
2022/04/29 01:34:24;;;;;;;;;;;16.50;83.10;;;;;;4593176;19;20273;-22
2022/04/29 01:35:55;;;;;;;;;;;16.50;83.00;;;;;;4593770;19;19970;-23
2022/04/29 01:37:26;;;;;;;;;;;16.50;83.00;;;;;;4591859;19;20348;-22
2022/04/29 01:38:57;;;;;;;;;;;16.50;83.00;;;;;;4593877;19;19915;-22
2022/04/29 01:40:28;;;;;;;;;;;16.40;82.90;;;;;;4595057;19;19914;-23
2022/04/29 01:41:59;;;;;;;;;;;16.50;83.00;;;;;;4595413;19;19921;-22
2022/04/29 01:43:30;;;;;;;;;;;16.40;82.90;;;;;;4595320;19;20301;-23
2022/04/29 01:45:01;;;;;;;;;;;16.50;82.90;;;;;;4595037;19;20325;-21
2022/04/29 01:46:32;;;;;;;;;;;16.50;82.90;;;;;;4595332;19;19932;-23
2022/04/29 01:48:03;;;;;;;;;;;16.50;82.90;;;;;;4595757;19;19915;-23
2022/04/29 01:49:34;;;;;;;;;;;16.50;82.80;;;;;;4595375;19;19918;-22
2022/04/29 01:51:06;;;;;;;;;;;16.50;82.80;;;;;;4595165;19;19918;-23
2022/04/29 01:52:37;;;;;;;;;;;16.40;82.70;;;;;;4595089;19;20336;-22
2022/04/29 01:54:10;;;;;;;;;;;16.50;82.60;;;;;;4595838;19;19914;-23
2022/04/29 01:55:42;;;;;;;;;;;16.50;82.50;;;;;;4594721;19;19911;-22
2022/04/29 01:57:12;;;;;;;;;;;16.50;82.50;;;;;;4595139;19;20359;-22
2022/04/29 01:58:43;;;;;;;;;;;16.50;82.40;;;;;;4594940;19;19911;-22
2022/04/29 02:00:14;;;;;;;;;;;16.50;82.30;;;;;;4595842;19;20336;-22
2022/04/29 02:01:46;;;;;;;;;;;16.50;82.30;;;;;;4594675;19;19918;-22
2022/04/29 02:03:17;;;;;;;;;;;16.40;82.70;;;;;;4595304;19;20422;-22
2022/04/29 02:04:48;;;;;;;;;;;16.50;82.10;;;;;;4595525;19;19914;-22
2022/04/29 02:06:19;;;;;;;;;;;16.40;82.00;;;;;;4595205;19;19919;-23
2022/04/29 02:07:50;;;;;;;;;;;16.50;82.00;;;;;;4594791;19;19978;-22
2022/04/29 02:09:21;;;;;;;;;;;16.50;81.90;;;;;;4594951;19;19938;-22
2022/04/29 02:10:52;;;;;;;;;;;16.40;81.70;;;;;;4595260;19;19915;-22
2022/04/29 02:12:23;;;;;;;;;;;16.50;81.80;;;;;;4594516;19;19966;-22
2022/04/29 02:13:54;;;;;;;;;;;16.40;82.20;;;;;;4592164;19;20333;-23
2022/04/29 02:15:26;;;;;;;;;;;16.40;81.60;;;;;;4593363;19;20261;-24
2022/04/29 02:16:57;;;;;;;;;;;16.40;81.60;;;;;;4594153;19;19911;-21
2022/04/29 02:18:28;;;;;;;;;;;16.40;81.60;;;;;;4594474;19;19919;-22
2022/04/29 02:19:59;;;;;;;;;;;16.40;81.50;;;;;;4594488;19;19938;-22
2022/04/29 02:21:30;;;;;;;;;;;16.40;81.50;;;;;;4594622;19;19966;-22
2022/04/29 02:23:01;;;;;;;;;;;16.40;81.40;;;;;;4594836;19;20325;-24
2022/04/29 02:24:32;;;;;;;;;;;16.40;81.30;;;;;;4594459;19;19922;-22
2022/04/29 02:26:03;;;;;;;;;;;16.40;81.30;;;;;;4593065;19;20357;-24
2022/04/29 02:27:36;;;;;;;;;;;16.40;81.20;;;;;;4595215;19;19929;-22
2022/04/29 02:29:09;;;;;;;;;;;16.40;81.20;;;;;;4594165;19;19911;-23
2022/04/29 02:30:40;;;;;;;;;;;16.40;81.70;;;;;;4594188;19;19919;-22
2022/04/29 02:32:11;;;;;;;;;;;16.40;81.10;;;;;;4594686;19;19970;-22
2022/04/29 02:33:42;;;;;;;;;;;16.40;81.10;;;;;;4594773;19;19911;-22
2022/04/29 02:35:14;;;;;;;;;;;16.40;81.10;;;;;;4593968;19;19947;-22
2022/04/29 02:36:45;;;;;;;;;;;16.40;81.10;;;;;;4593661;19;19919;-24
2022/04/29 02:38:16;;;;;;;;;;;16.40;81.10;;;;;;4593849;19;19919;-25
2022/04/29 02:39:47;;;;;;;;;;;16.40;81.00;;;;;;4594870;19;20257;-21
2022/04/29 02:41:18;;;;;;;;;;;16.40;81.10;;;;;;4594088;19;19925;-22
2022/04/29 02:42:49;;;;;;;;;;;16.40;81.10;;;;;;4594185;19;19907;-22
2022/04/29 02:44:20;;;;;;;;;;;16.40;81.10;;;;;;4591761;19;19923;-21
2022/04/29 02:45:51;;;;;;;;;;;16.40;81.10;;;;;;4594489;19;20325;-22
2022/04/29 02:47:22;;;;;;;;;;;16.40;81.10;;;;;;4594110;19;19935;-22
2022/04/29 02:48:53;;;;;;;;;;;16.40;81.10;;;;;;4593918;19;19978;-24
2022/04/29 02:50:24;;;;;;;;;;;16.40;81.00;;;;;;4593921;19;20354;-22
2022/04/29 02:51:55;;;;;;;;;;;16.40;81.00;;;;;;4593552;19;19937;-22
2022/04/29 02:53:26;;;;;;;;;;;16.40;81.00;;;;;;4593906;19;20265;-22
2022/04/29 02:54:57;;;;;;;;;;;16.40;81.00;;;;;;4594463;19;19930;-22
2022/04/29 02:56:28;;;;;;;;;;;16.40;81.00;;;;;;4594110;19;19994;-22
2022/04/29 02:57:59;;;;;;;;;;;16.40;81.00;;;;;;4592515;19;19919;-22
2022/04/29 02:59:30;;;;;;;;;;;16.40;81.00;;;;;;4593041;19;19935;-23
2022/04/29 03:01:01;;;;;;;;;;;16.40;80.90;;;;;;4594195;19;19921;-21
2022/04/29 03:02:32;;;;;;;;;;;16.40;80.90;;;;;;4594466;19;19918;-22
2022/04/29 03:04:03;;;;;;;;;;;16.40;80.90;;;;;;4593662;19;19925;-25
2022/04/29 03:05:34;;;;;;;;;;;16.40;80.80;;;;;;4593601;19;20342;-22
2022/04/29 03:07:05;;;;;;;;;;;16.40;80.70;;;;;;4593970;19;19910;-22
2022/04/29 03:08:36;;;;;;;;;;;16.40;80.70;;;;;;4593309;19;19915;-22
2022/04/29 03:10:07;;;;;;;;;;;16.40;80.70;;;;;;4592267;19;19925;-22
2022/04/29 03:11:38;;;;;;;;;;;16.40;80.70;;;;;;4593347;19;19939;-21
2022/04/29 03:13:09;;;;;;;;;;;16.40;80.70;;;;;;4593832;19;20282;-25
2022/04/29 03:14:40;;;;;;;;;;;16.40;80.70;;;;;;4593378;19;19974;-26
2022/04/29 03:16:13;;;;;;;;;;;16.40;80.70;;;;;;4591034;19;19922;-22
2022/04/29 03:19:34;;;;;;;;;;;16.40;80.60;;;;;;4593392;19;19926;-22
2022/04/29 03:21:05;;;;;;;;;;;16.40;80.50;;;;;;4592168;19;19915;-23
2022/04/29 03:22:37;;;;;;;;;;;16.40;80.50;;;;;;4592661;19;20329;-22
2022/04/29 03:24:07;;;;;;;;;;;16.40;80.40;;;;;;4593290;19;19915;-22
2022/04/29 03:25:40;;;;;;;;;;;16.40;80.40;;;;;;4593103;19;19935;-22
2022/04/29 03:27:11;;;;;;;;;;;16.40;80.40;;;;;;4593008;19;19970;-22
2022/04/29 03:28:42;;;;;;;;;;;16.40;80.40;;;;;;4592911;19;19919;-22
2022/04/29 03:30:13;;;;;;;;;;;16.40;80.50;;;;;;4593526;19;19918;-22
2022/04/29 03:31:44;;;;;;;;;;;16.40;80.50;;;;;;4593585;19;19918;-22
2022/04/29 03:33:15;;;;;;;;;;;16.40;80.40;;;;;;4592747;19;19923;-22
2022/04/29 03:34:46;;;;;;;;;;;16.40;80.40;;;;;;4593474;19;19911;-21
2022/04/29 03:36:16;;;;;;;;;;;16.40;80.30;;;;;;4593380;19;19914;-22
2022/04/29 03:37:52;;;;;;;;;;;16.40;80.30;;;;;;4592600;19;19915;-22
2022/04/29 03:39:23;;;;;;;;;;;16.40;80.20;;;;;;4592782;19;20321;-23
2022/04/29 03:40:54;;;;;;;;;;;16.40;80.20;;;;;;4592982;19;19979;-22
2022/04/29 03:42:25;;;;;;;;;;;16.40;80.10;;;;;;4593273;19;19917;-22
2022/04/29 03:43:56;;;;;;;;;;;16.40;80.10;;;;;;4592670;19;20356;-25
2022/04/29 03:45:27;;;;;;;;;;;16.40;80.10;;;;;;4593386;19;19947;-23
2022/04/29 03:46:57;;;;;;;;;;;16.40;80.20;;;;;;4592661;19;19934;-21
2022/04/29 03:49:35;;;;;;;;;;;16.40;80.20;;;;;;4593458;19;19922;-22
2022/04/29 03:50:23;;;;;;;;;;;16.40;80.70;;;;;;4592529;19;19915;-23
2022/04/29 03:51:54;;;;;;;;;;;16.40;80.10;;;;;;4592549;19;19918;-21
2022/04/29 03:53:25;;;;;;;;;;;16.40;80.60;;;;;;4592645;19;20253;-22
2022/04/29 03:54:56;;;;;;;;;;;16.40;80.10;;;;;;4592965;19;19915;-25
2022/04/29 03:56:27;;;;;;;;;;;16.40;80.10;;;;;;4591451;19;19917;-27
2022/04/29 03:57:58;;;;;;;;;;;16.40;80.20;;;;;;4592635;19;19919;-23
2022/04/29 03:59:31;;;;;;;;;;;16.40;80.20;;;;;;4592625;19;20244;-22
2022/04/29 04:01:01;;;;;;;;;;;16.40;80.20;;;;;;4593177;19;19914;-22
2022/04/29 04:02:32;;;;;;;;;;;16.40;80.10;;;;;;4592538;19;19923;-22
2022/04/29 04:04:03;;;;;;;;;;;16.40;80.10;;;;;;4592733;19;19932;-24
2022/04/29 04:05:34;;;;;;;;;;;16.40;80.20;;;;;;4593102;19;19914;-24
2022/04/29 04:07:05;;;;;;;;;;;16.40;80.10;;;;;;4593389;19;19915;-22
2022/04/29 04:08:36;;;;;;;;;;;16.40;80.20;;;;;;4592640;19;19914;-22
2022/04/29 04:10:07;;;;;;;;;;;16.40;80.20;;;;;;4592292;19;19919;-22
2022/04/29 04:11:38;;;;;;;;;;;16.40;80.20;;;;;;4591537;19;20339;-22
2022/04/29 04:13:09;;;;;;;;;;;16.40;80.30;;;;;;4591517;19;19911;-24
2022/04/29 04:14:40;;;;;;;;;;;16.40;80.30;;;;;;4591071;19;19927;-22
2022/04/29 04:16:11;;;;;;;;;;;16.40;80.40;;;;;;4591287;19;19953;-22
2022/04/29 04:17:42;;;;;;;;;;;16.40;80.40;;;;;;4591521;19;19911;-22
2022/04/29 04:19:13;;;;;;;;;;;16.40;80.40;;;;;;4591840;19;19922;-22
2022/04/29 04:20:44;;;;;;;;;;;16.40;80.40;;;;;;4591796;19;19915;-24
2022/04/29 04:22:15;;;;;;;;;;;16.40;80.90;;;;;;4593637;19;20389;-22
2022/04/29 04:23:47;;;;;;;;;;;16.40;80.40;;;;;;4592509;19;19926;-22
2022/04/29 04:25:17;;;;;;;;;;;16.40;80.50;;;;;;4591689;19;19911;-21
2022/04/29 04:26:48;;;;;;;;;;;16.40;80.50;;;;;;4591957;19;19914;-23
2022/04/29 04:28:19;;;;;;;;;;;16.40;80.50;;;;;;4592406;19;20304;-24
2022/04/29 04:29:50;;;;;;;;;;;16.40;80.60;;;;;;4591592;19;19918;-24
2022/04/29 04:31:21;;;;;;;;;;;16.40;80.70;;;;;;4590860;19;19984;-21
2022/04/29 04:32:52;;;;;;;;;;;16.40;80.70;;;;;;4590784;19;19928;-21
2022/04/29 04:36:12;;;;;;;;;;;16.40;80.70;;;;;;4594186;19;20238;-25
2022/04/29 04:37:44;;;;;;;;;;;16.40;80.70;;;;;;4590591;19;19942;-23
2022/04/29 04:39:14;;;;;;;;;;;16.40;80.80;;;;;;4592198;19;19931;-22
2022/04/29 04:40:47;;;;;;;;;;;16.40;80.70;;;;;;4591915;19;19925;-22
2022/04/29 04:42:20;;;;;;;;;;;16.40;80.50;;;;;;4590668;19;19975;-23
2022/04/29 04:43:51;;;;;;;;;;;16.50;80.40;;;;;;4592865;19;19926;-22
2022/04/29 04:45:22;;;;;;;;;;;16.50;80.30;;;;;;4592786;19;20248;-24
2022/04/29 04:46:54;;;;;;;;;;;16.50;80.30;;;;;;4592260;19;19939;-21
2022/04/29 04:48:25;;;;;;;;;;;16.50;80.20;;;;;;4592518;19;19922;-22
2022/04/29 04:49:56;;;;;;;;;;;16.50;80.20;;;;;;4593463;19;19942;-22
2022/04/29 04:51:27;;;;;;;;;;;16.50;80.30;;;;;;4592610;19;19923;-23
2022/04/29 04:52:58;;;;;;;;;;;16.50;80.40;;;;;;4593851;19;20317;-23
2022/04/29 04:54:29;;;;;;;;;;;16.50;80.40;;;;;;4592467;19;19918;-22
2022/04/29 04:55:59;;;;;;;;;;;16.50;80.40;;;;;;4593553;19;19940;-22
2022/04/29 04:57:30;;;;;;;;;;;16.50;80.40;;;;;;4592112;19;19915;-22
2022/04/29 04:59:02;;;;;;;;;;;16.50;80.30;;;;;;4590738;19;19915;-22
2022/04/29 05:00:33;;;;;;;;;;;16.50;80.40;;;;;;4593392;19;20246;-24
2022/04/29 05:02:04;;;;;;;;;;;16.50;80.40;;;;;;4592847;19;19915;-21
2022/04/29 05:03:35;;;;;;;;;;;16.50;80.50;;;;;;4592380;19;20334;-22
2022/04/29 05:05:07;;;;;;;;;;;16.40;80.60;;;;;;4592748;19;19930;-22
2022/04/29 05:06:38;;;;;;;;;;;16.40;80.50;;;;;;4593595;19;19918;-22
2022/04/29 05:08:08;;;;;;;;;;;16.40;80.50;;;;;;4591294;19;19922;-22
2022/04/29 05:09:39;;;;;;;;;;;16.40;80.40;;;;;;4591892;19;20256;-23
2022/04/29 05:11:10;;;;;;;;;;;16.50;80.30;;;;;;4593718;19;19951;-22
2022/04/29 05:12:45;;;;;;;;;;;16.50;80.10;;;;;;4591124;19;20276;-23
2022/04/29 05:14:16;;;;;;;;;;;16.60;79.90;;;;;;4591664;19;19915;-22
2022/04/29 05:15:46;;;;;;;;;;;16.60;79.80;;;;;;4590745;19;19918;-22
2022/04/29 05:17:21;;;;;;;;;;;16.60;79.60;;;;;;4590026;19;19939;-22
2022/04/29 05:18:52;;;;;;;;;;;16.70;79.60;;;;;;4591558;19;19925;-24
2022/04/29 05:20:22;;;;;;;;;;;16.70;79.50;;;;;;4591670;19;19923;-26
2022/04/29 05:21:54;;;;;;;;;;;16.70;79.50;;;;;;4592562;19;20252;-22
2022/04/29 05:23:25;;;;;;;;;;;16.70;79.40;;;;;;4592111;19;19926;-21
2022/04/29 05:24:56;;;;;;;;;;;16.70;79.40;;;;;;4590785;19;20296;-21
2022/04/29 05:26:27;;;;;;;;;;;16.70;79.40;;;;;;4589216;19;19928;-22
2022/04/29 05:27:57;;;;;;;;;;;16.70;79.40;;;;;;4590683;19;19932;-22
2022/04/29 05:29:29;;;;;;;;;;;16.70;79.30;;;;;;4593118;19;20297;-22
2022/04/29 05:31:00;;;;;;;;;;;16.70;79.30;;;;;;4590643;19;19918;-23
2022/04/29 05:32:30;;;;;;;;;;;16.70;79.30;;;;;;4591560;19;19914;-23
2022/04/29 05:34:03;;;;;;;;;;;16.70;79.20;;;;;;4591435;19;20242;-23
2022/04/29 05:35:35;;;;;;;;;;;16.70;79.30;;;;;;4591748;19;19915;-24
2022/04/29 05:37:06;;;;;;;;;;;16.70;79.10;;;;;;4590921;19;19922;-23
2022/04/29 05:42:18;;;;;;;;;;;16.80;79.10;;;;;;4590297;19;19966;-27
2022/04/29 05:43:49;;;;;;;;;;;16.80;79.10;;;;;;4590516;19;19919;-23
2022/04/29 05:45:20;;;;;;;;;;;16.80;78.90;;;;;;4592939;19;19911;-23
2022/04/29 05:46:50;;;;;;;;;;;16.70;78.90;;;;;;4590015;19;19918;-22
2022/04/29 05:48:22;;;;;;;;;;;16.80;78.90;;;;;;4591204;19;19927;-22
2022/04/29 05:49:52;;;;;;;;;;;16.80;78.90;;;;;;4592630;19;19930;-24
2022/04/29 05:51:23;;;;;;;;;;;16.70;78.90;;;;;;4592950;19;19943;-23
2022/04/29 05:52:54;;;;;;;;;;;16.80;78.90;;;;;;4592558;19;19926;-25
2022/04/29 05:54:25;;;;;;;;;;;16.70;78.90;;;;;;4589378;19;19915;-25
2022/04/29 05:55:56;;;;;;;;;;;16.70;78.90;;;;;;4591878;19;20348;-23
2022/04/29 05:57:27;;;;;;;;;;;16.80;78.90;;;;;;4590802;19;19930;-24
2022/04/29 05:58:58;;;;;;;;;;;16.70;78.80;;;;;;4592077;19;20265;-24
2022/04/29 06:00:29;;;;;;;;;;;16.70;78.90;;;;;;4591169;19;20337;-24
2022/04/29 06:02:00;;;;;;;;;;;16.70;78.80;;;;;;4590216;19;19907;-24
2022/04/29 06:03:31;;;;;;;;;;;16.70;78.90;;;;;;4591327;19;19930;-23
2022/04/29 06:05:02;;;;;;;;;;;16.70;78.90;;;;;;4589986;19;19915;-22
2022/04/29 06:06:34;;;;;;;;;;;16.70;78.90;;;;;;4589698;19;19926;-25
2022/04/29 06:08:04;;;;;;;;;;;16.80;78.80;;;;;;4590386;19;19918;-23
2022/04/29 06:09:35;;;;;;;;;;;16.90;78.60;;;;;;4589846;19;19915;-25
2022/04/29 06:11:06;;;;;;;;;;;16.90;78.40;;;;;;4589876;19;19923;-23
2022/04/29 06:12:41;;;;;;;;;;;16.90;78.30;;;;;;4590234;19;19922;-26
2022/04/29 06:14:12;;;;;;;;;;;17.00;78.10;;;;;;4590519;19;19922;-25
2022/04/29 06:15:45;;;;;;;;;;;17.00;78.00;;;;;;4589423;19;20317;-23
2022/04/29 06:17:15;;;;;;;;;;;17.00;77.70;;;;;;4590405;19;19915;-24
2022/04/29 06:18:47;;;;;;;;;;;17.10;77.60;;;;;;4590720;19;19996;-23
2022/04/29 06:20:18;;;;;;;;;;;17.10;77.50;;;;;;4593389;19;19914;-23
2022/04/29 06:21:48;;;;;;;;;;;17.10;77.40;;;;;;4594715;19;19922;-23
2022/04/29 06:23:19;;;;;;;;;;;17.10;77.30;;;;;;4595007;19;20006;-25
2022/04/29 06:24:50;;;;;;;;;;;17.10;77.20;;;;;;4595480;19;19926;-23
2022/04/29 06:26:21;;;;;;;;;;;17.20;77.20;;;;;;4592024;19;19923;-24
2022/04/29 06:27:52;;;;;;;;;;;17.20;77.20;;;;;;4596875;19;20244;-24
2022/04/29 06:29:23;;;;;;;;;;;17.30;77.10;;;;;;4594051;19;19978;-23
2022/04/29 06:30:54;;;;;;;;;;;17.30;77.00;;;;;;4595225;19;19915;-23
2022/04/29 06:32:25;;;;;;;;;;;17.30;76.80;;;;;;4595436;19;19915;-25
2022/04/29 06:33:56;;;;;;;;;;;17.40;76.70;;;;;;4594045;19;19919;-22
2022/04/29 06:35:27;;;;;;;;;;;17.50;76.60;;;;;;4595861;19;20389;-23
2022/04/29 06:36:58;;;;;;;;;;;17.60;77.30;;;;;;4592541;19;20301;-22
2022/04/29 06:38:29;;;;;;;;;;;16.80;75.50;;;;;;4595757;19;19921;-22
2022/04/29 06:40:00;;;;;;;;;;;15.30;75.80;;;;;;4595713;19;19922;-23
2022/04/29 06:41:31;;;;;;;;;;;14.40;77.30;;;;;;4596316;19;20002;-24
2022/04/29 06:43:05;;;;;;;9.10;7.50;;;13.80;78.50;;;;;;4594426;19;20043;-22
2022/04/29 06:44:36;;;;;;;;;;;13.50;80.60;;;;;;4596781;19;20357;-23
2022/04/29 06:46:08;;;;;;;;;;;13.40;80.10;;;;;;4594390;19;19932;-21
2022/04/29 06:47:39;;;;;;;;;;;13.30;80.40;;;;;;4594943;19;20080;-23
2022/04/29 06:49:11;;;;;;;9.32;6.60;;;13.30;79.90;;;;;;4594498;19;20316;-25
2022/04/29 06:50:42;;;;;;;9.85;7.25;;;13.20;80.50;;;;;;4593969;19;20014;-20
2022/04/29 06:52:12;;;;;;;8.32;6.32;;;13.20;80.60;;;;;;4595224;19;20025;-23
2022/04/29 06:53:43;;;;;;;8.20;6.55;;;13.20;81.10;;;;;;4594181;19;20026;-23
2022/04/29 06:55:15;;;;;;;8.48;6.70;;;13.20;80.40;;;;;;4595421;19;20010;-23
2022/04/29 06:56:46;;;;;;;9.05;6.30;;;13.20;79.70;;;;;;4592123;19;20022;-24
2022/04/29 06:58:17;;;;;;;7.70;5.60;;;13.20;79.00;;;;;;4594237;19;20515;-22
2022/04/29 06:59:51;;;;;;;;;;;13.30;79.10;;;;;;4593249;19;20018;-24
2022/04/29 07:01:22;;;;;;;9.47;6.00;;;13.20;78.20;;;;;;4594431;19;19910;-23
2022/04/29 07:02:54;;;;;;;9.73;6.30;;;13.30;77.90;;;;;;4593894;19;20460;-25
2022/04/29 07:04:28;;;;;;;7.13;6.00;;;13.20;78.30;;;;;;4593260;19;20014;-23
2022/04/29 07:06:01;;;;;;;5.90;5.13;;;13.20;79.00;;;;;;4593439;19;20466;-23
2022/04/29 07:07:32;;;;;;;7.60;5.43;;;13.20;78.40;;;;;;4593501;19;20452;-25
2022/04/29 07:09:04;;;;;;;6.50;5.10;;;13.20;78.00;;;;;;4592106;19;20445;-23
2022/04/29 07:10:35;;;;;;;6.93;4.80;;;13.30;78.90;;;;;;4594986;19;20031;-24
2022/04/29 07:12:09;;;;;;;7.10;5.00;;;13.20;79.50;;;;;;4593962;19;20783;-23
2022/04/29 07:13:43;;;;;;;8.00;5.20;;;13.30;78.20;;;;;;4593700;19;21071;-23
2022/04/29 07:15:15;;;;;;;6.40;5.30;;;13.20;78.60;;;;;;4592770;19;20487;-25
2022/04/29 07:16:46;;;;;;;8.30;5.30;;;13.20;78.50;;;;;;4593941;19;20544;-24
2022/04/29 07:18:17;;;;;;;7.32;5.18;;;13.30;78.10;;;;;;4592963;19;20010;-22
2022/04/29 07:19:50;;;;;;;6.82;4.80;;;13.20;77.60;;;;;;4594288;19;20015;-24
2022/04/29 07:21:21;;;;;;;7.50;5.47;;;13.20;78.90;;;;;;4593948;19;20358;-23
2022/04/29 07:22:52;;;;;;;8.27;5.85;;;13.20;77.30;;;;;;4592367;19;20441;-24
2022/04/29 07:24:23;;;;;;;6.65;5.18;;;13.30;77.10;;;;;;4593566;19;20074;-23
2022/04/29 07:25:54;;;;;;;6.10;4.25;;;13.30;77.60;;;;;;4591822;19;20010;-25
2022/04/29 07:27:28;;;;;;;7.35;4.43;;;13.30;76.80;;;;;;4593276;19;20020;-23
2022/04/29 07:28:59;;;;;;;7.03;5.03;;;13.30;78.10;;;;;;4592879;19;20031;-23
2022/04/29 07:30:30;;;;;;;5.88;4.60;;;13.30;77.80;;;;;;4592550;19;21059;-21
2022/04/29 07:32:01;;;;;;;6.28;4.90;;;13.30;78.00;;;;;;4592761;19;20019;-24
2022/04/29 07:33:32;;;;;;;6.67;4.97;;;13.30;78.20;;;;;;4593397;19;20468;-24
2022/04/29 07:42:21;;;;;;;7.73;4.50;;;13.40;76.90;;;;;;4593430;19;20540;-22
2022/04/29 07:43:53;;;;;;;6.45;4.78;;;13.40;76.90;;;;;;4593176;19;20560;-24
2022/04/29 07:45:24;;;;;;;6.97;4.60;;;13.50;77.60;;;;;;4592636;19;20019;-21
2022/04/29 07:46:55;;;;;;;5.45;4.32;;;13.50;78.40;;;;;;4592601;19;20507;-23
2022/04/29 07:48:26;;;;;;;5.82;4.20;;;13.50;78.50;;;;;;4592960;19;20074;-24
2022/04/29 07:49:58;;;;;;;6.68;4.50;;;13.50;77.20;;;;;;4591852;19;20094;-22
2022/04/29 07:51:29;;;;;;;5.95;4.20;;;13.50;77.00;;;;;;4592889;19;20025;-25
2022/04/29 07:53:00;;;;;;;5.57;3.72;;;13.50;76.70;;;;;;4591330;19;20412;-25
2022/04/29 07:54:31;;;;;;;6.25;4.45;;;13.50;77.00;;;;;;4591977;19;20031;-25
2022/04/29 07:56:02;;;;;;;4.93;3.58;;;13.50;75.90;;;;;;4592776;19;20010;-25
2022/04/29 07:57:36;;;;;;;6.10;4.30;;;13.50;75.20;;;;;;4590894;19;20022;-24
2022/04/29 07:59:07;;;;;;;5.05;3.42;;;13.50;75.20;;;;;;4591752;19;20572;-23
2022/04/29 08:00:39;;;;;;;4.72;3.08;;;13.50;75.70;;;;;;4593302;19;20015;-25
2022/04/29 08:02:10;;;;;;;4.90;3.55;;;13.50;75.00;;;;;;4592130;19;20006;-23
2022/04/29 08:03:41;;;;;;;4.40;2.92;;;13.50;75.40;;;;;;4593326;19;20022;-24
2022/04/29 08:05:12;;;;;;;5.35;3.28;;;13.50;75.80;;;;;;4591175;19;20007;-24
2022/04/29 08:06:43;;;;;;;4.80;3.35;;;13.50;77.80;;;;;;4592931;19;20022;-24
2022/04/29 08:08:14;;;;;;;5.18;3.20;;;13.50;76.20;;;;;;4592072;19;20011;-24
2022/04/29 08:09:45;;;;;;;5.13;3.50;;;13.50;76.10;;;;;;4593058;19;20021;-24
2022/04/29 08:11:16;;;;;;;5.32;3.70;;;13.50;76.20;;;;;;4591547;19;20014;-25
2022/04/29 08:12:47;;;;;;;6.55;3.67;;;13.50;75.30;;;;;;4589164;19;20010;-24
2022/04/29 08:14:20;;;;;;;4.20;3.17;;;13.50;74.70;;;;;;4592379;19;20047;-23
2022/04/29 08:15:51;;;;;;;4.20;3.03;;;13.50;75.50;;;;;;4591910;19;20491;-23
2022/04/29 08:17:22;;;;;;;3.92;2.58;;;13.50;74.00;;;;;;4591789;19;20472;-23
2022/04/29 08:18:53;;;;;;;4.57;3.17;;;13.50;74.70;;;;;;4591140;19;20021;-24
2022/04/29 08:20:24;;;;;;;3.85;2.90;;;13.50;75.10;;;;;;4591508;19;20018;-25
2022/04/29 08:21:56;;;;;;;4.85;2.92;;;13.50;74.50;;;;;;4592179;19;20017;-23
2022/04/29 08:23:27;;;;;;;4.33;2.93;;;13.50;74.40;;;;;;4592208;19;20038;-25
2022/04/29 08:24:58;;;;;;;4.00;2.83;;;13.50;74.70;;;;;;4593858;19;20501;-24
2022/04/29 08:26:29;;;;;;;4.70;3.13;;;13.50;74.10;;;;;;4591437;19;20074;-24
2022/04/29 08:28:01;;;;;;;4.82;3.10;;;13.50;74.30;;;;;;4593380;19;20006;-23
2022/04/29 08:29:33;;;;;;;4.28;3.00;;;13.50;75.30;;;;;;4592780;19;20021;-25
2022/04/29 08:31:04;;;;;;;4.57;2.93;;;13.50;75.10;;;;;;4592410;19;20041;-23
2022/04/29 08:32:42;;;;;;;4.05;2.75;;;13.50;75.40;;;;;;4590939;19;20548;-24
2022/04/29 08:34:17;;;;;;;4.23;2.80;;;13.50;74.20;;;;;;4592602;19;20106;-23
2022/04/29 08:35:48;;;;;;;5.60;3.23;;;13.50;74.10;;;;;;4591384;19;20555;-23
2022/04/29 08:37:19;;;;;;;4.18;2.75;;;13.50;74.40;;;;;;4592770;19;20449;-23
2022/04/29 08:38:51;;;;;;;3.83;2.53;;;13.50;73.70;;;;;;4593385;19;20007;-24
2022/04/29 08:40:22;;;;;;;;;;;13.60;74.00;;;;;;4591843;19;20495;-24
2022/04/29 08:41:53;;;;;;;4.63;2.67;;;13.50;72.80;;;;;;4591666;19;20408;-24
2022/04/29 08:43:25;;;;;;;4.28;2.50;;;13.50;72.40;;;;;;4592814;19;20560;-22
2022/04/29 08:44:57;;;;;;;2.93;2.20;;;13.60;73.70;;;;;;4590750;19;20104;-24
2022/04/29 08:46:28;;;;;;;5.35;2.78;;;13.50;72.70;;;;;;4592270;19;20505;-23
2022/04/29 08:47:59;;;;;;;3.63;2.38;;;13.50;72.00;;;;;;4589635;19;20460;-24
2022/04/29 08:49:31;;;;;;;3.72;2.67;;;13.50;72.20;;;;;;4592249;19;20023;-23
2022/04/29 08:51:02;;;;;;;;;;;13.50;72.70;;;;;;4591428;19;20087;-23
2022/04/29 08:52:35;;;;;;;3.67;2.07;;;13.60;73.20;;;;;;4592842;19;19974;-23